Time;durP1;ratioP1;P1;durP2;ratioP2;P2;SDS_P1;SDS_P2;PMS_P1;PMS_P2;Temp;Humidity;BMP_temperature;BMP_pressure;BME280_temperature;BME280_humidity;BME280_pressure;Samples;Min_cycle;Max_cycle;Signal;HPM_P1;HPM_P2
2023/10/18 00:00:43;;;;;;;9.15;8.25;;;;;;;6.08;64.39;100892.84;698198;28;1260;-90
2023/10/18 00:01:04;;;;;;;9.40;8.38;;;;;;;6.06;64.40;100883.25;696275;28;1282;-90
2023/10/18 00:01:25;;;;;;;8.38;7.50;;;;;;;6.06;64.40;100888.44;693186;28;1050;-90
2023/10/18 00:01:46;;;;;;;8.88;7.88;;;;;;;6.02;64.51;100882.22;687874;28;1090;-89
2023/10/18 00:02:16;;;;;;;8.40;7.50;;;;;;;6.04;64.36;100880.56;690113;28;1247;-89
2023/10/18 00:02:37;;;;;;;10.63;8.40;;;;;;;6.06;64.12;100893.63;693476;28;1322;-89
2023/10/18 00:03:01;;;;;;;11.68;8.23;;;;;;;6.03;64.01;100884.84;699015;28;1309;-90
2023/10/18 00:03:22;;;;;;;11.48;8.55;;;;;;;6.02;64.58;100883.09;698161;28;1344;-90
2023/10/18 00:03:44;;;;;;;11.50;8.20;;;;;;;6.07;64.32;100885.03;690553;28;1475;-90
2023/10/18 00:04:04;;;;;;;9.25;8.07;;;;;;;6.01;64.34;100875.22;701893;28;1353;-89
2023/10/18 00:04:25;;;;;;;9.63;8.23;;;;;;;5.99;64.24;100885.53;693295;28;1222;-89
2023/10/18 00:04:46;;;;;;;9.40;8.40;;;;;;;5.97;64.46;100882.00;690384;28;1189;-90
2023/10/18 00:05:10;;;;;;;11.83;8.50;;;;;;;6.00;64.42;100892.50;696145;28;1238;-90
2023/10/18 00:05:31;;;;;;;10.75;7.85;;;;;;;5.99;64.29;100882.94;695506;28;1673;-89
2023/10/18 00:05:52;;;;;;;11.23;7.93;;;;;;;6.05;64.54;100886.63;690566;28;1256;-90
2023/10/18 00:06:15;;;;;;;10.05;7.90;;;;;;;5.94;64.21;100879.22;687386;28;1914;-90
2023/10/18 00:06:36;;;;;;;10.80;8.10;;;;;;;5.98;64.25;100885.44;692641;28;1372;-89
2023/10/18 00:06:59;;;;;;;10.00;7.90;;;;;;;5.95;63.87;100875.81;695685;28;1315;-90
2023/10/18 00:07:20;;;;;;;10.77;8.65;;;;;;;5.98;64.35;100886.34;690368;28;1672;-90
2023/10/18 00:07:41;;;;;;;10.65;8.80;;;;;;;6.00;64.21;100886.41;689951;28;1180;-90
2023/10/18 00:08:03;;;;;;;10.68;8.55;;;;;;;5.92;64.38;100874.78;698804;28;1185;-90
2023/10/18 00:08:24;;;;;;;11.40;8.07;;;;;;;5.96;64.53;100887.97;695916;28;1238;-88
2023/10/18 00:08:47;;;;;;;12.55;8.02;;;;;;;5.95;64.11;100881.00;690360;28;1179;-90
2023/10/18 00:09:50;;;;;;;12.18;8.88;;;;;;;5.97;64.42;100884.59;690228;28;1409;-89
2023/10/18 00:10:11;;;;;;;12.63;8.75;;;;;;;5.97;64.58;100887.16;687410;28;1388;-90
2023/10/18 00:10:33;;;;;;;11.82;8.50;;;;;;;6.00;64.10;100889.00;691816;28;1277;-90
2023/10/18 00:10:53;;;;;;;11.43;8.52;;;;;;;5.97;64.40;100878.50;693029;28;1340;-90
2023/10/18 00:11:15;;;;;;;11.35;8.50;;;;;;;6.01;64.43;100886.50;690515;28;1177;-90
2023/10/18 00:11:36;;;;;;;10.18;8.15;;;;;;;5.94;64.34;100876.63;690085;28;1332;-90
2023/10/18 00:11:57;;;;;;;9.90;8.00;;;;;;;5.91;64.50;100873.91;690107;28;1277;-90
2023/10/18 00:12:18;;;;;;;8.52;7.63;;;;;;;5.96;64.33;100877.59;693293;28;1373;-90
2023/10/18 00:12:39;;;;;;;9.40;7.93;;;;;;;5.91;64.49;100873.91;696041;28;1191;-89
2023/10/18 00:13:00;;;;;;;9.00;7.90;;;;;;;5.95;64.20;100880.13;690218;28;1213;-90
2023/10/18 00:13:24;;;;;;;10.67;8.30;;;;;;;5.93;64.27;100880.06;692712;28;1282;-90
2023/10/18 00:13:49;;;;;;;10.68;8.60;;;;;;;5.92;64.09;100874.78;695244;28;1150;-90
2023/10/18 00:14:10;;;;;;;11.23;9.07;;;;;;;5.92;64.10;100867.91;690494;28;1353;-89
2023/10/18 00:14:39;;;;;;;11.70;9.13;;;;;;;5.93;64.53;100877.47;690261;28;1061;-89
2023/10/18 00:14:59;;;;;;;11.38;8.70;;;;;;;5.96;64.52;100880.19;693489;28;846;-90
2023/10/18 00:15:21;;;;;;;10.18;8.23;;;;;;;5.88;64.17;100873.75;688051;28;1201;-90
2023/10/18 00:15:41;;;;;;;9.15;7.60;;;;;;;5.89;64.70;100879.00;691789;28;1224;-89
2023/10/18 00:16:05;;;;;;;10.40;7.90;;;;;;;5.89;64.47;100875.50;693796;28;1189;-90
2023/10/18 00:16:25;;;;;;;10.90;8.15;;;;;;;5.91;64.23;100871.31;693052;28;1580;-90
2023/10/18 00:16:47;;;;;;;11.15;8.45;;;;;;;5.90;64.25;100872.13;690150;28;1019;-90
2023/10/18 00:17:09;;;;;;;9.92;8.20;;;;;;;5.89;64.66;100880.69;692749;28;1361;-90
2023/10/18 00:17:29;;;;;;;9.50;8.30;;;;;;;5.89;64.38;100866.06;695376;28;1254;-90
2023/10/18 00:17:50;;;;;;;11.63;8.70;;;;;;;5.96;64.19;100881.91;695979;28;1177;-90
2023/10/18 00:18:11;;;;;;;11.63;8.77;;;;;;;5.92;64.25;100880.88;693519;28;1266;-90
2023/10/18 00:18:33;;;;;;;10.75;8.18;;;;;;;5.91;64.25;100881.69;693311;28;1373;-90
2023/10/18 00:18:54;;;;;;;9.90;8.18;;;;;;;5.85;64.33;100868.44;696131;28;1365;-89
2023/10/18 00:19:15;;;;;;;12.95;8.57;;;;;;;5.89;64.19;100878.09;692915;28;1055;-90
2023/10/18 00:19:37;;;;;;;13.32;8.93;;;;;;;5.86;64.43;100871.09;689272;28;1375;-90
2023/10/18 00:19:58;;;;;;;10.25;8.40;;;;;;;5.91;64.33;100876.50;690113;28;1260;-89
2023/10/18 00:20:28;;;;;;;9.07;8.00;;;;;;;5.90;64.20;100877.31;690563;28;1398;-90
2023/10/18 00:21:01;;;;;;;8.88;7.63;;;;;;;5.88;64.33;100873.75;693197;28;1286;-90
2023/10/18 00:21:21;;;;;;;9.25;8.10;;;;;;;5.87;64.21;100870.28;695710;28;1007;-90
2023/10/18 00:21:42;;;;;;;9.32;8.30;;;;;;;5.89;64.46;100875.50;693133;28;1220;-90
2023/10/18 00:22:06;;;;;;;9.90;8.07;;;;;;;5.89;64.40;100880.69;690431;28;1356;-90
2023/10/18 00:22:27;;;;;;;12.15;8.00;;;;;;;5.86;64.67;100872.78;690684;28;1279;-90
2023/10/18 00:22:48;;;;;;;13.90;8.30;;;;;;;5.81;64.72;100872.56;697691;28;1225;-90
2023/10/18 00:23:10;;;;;;;12.35;8.35;;;;;;;5.86;64.20;100878.88;693330;28;1268;-89
2023/10/18 00:23:31;;;;;;;10.15;8.30;;;;;;;5.85;64.49;100871.03;693162;28;1268;-89
2023/10/18 00:23:52;;;;;;;9.70;8.35;;;;;;;5.77;64.60;100856.81;693017;28;1321;-90
2023/10/18 00:24:13;;;;;;;8.98;8.02;;;;;;;5.88;64.45;100874.66;687284;28;1332;-89
2023/10/18 00:24:34;;;;;;;8.63;7.78;;;;;;;5.89;64.55;100880.69;693502;28;1109;-89
2023/10/18 00:24:55;;;;;;;8.85;7.95;;;;;;;5.82;64.39;100860.53;693321;28;1057;-89
2023/10/18 00:25:21;;;;;;;11.00;9.00;;;;;;;5.82;64.37;100863.13;696098;28;1024;-90
2023/10/18 00:25:42;;;;;;;13.18;9.18;;;;;;;5.84;64.52;100867.53;695988;28;978;-90
2023/10/18 00:26:07;;;;;;;12.95;9.00;;;;;;;5.87;64.59;100866.78;693141;28;1188;-90
2023/10/18 00:26:28;;;;;;;11.43;8.55;;;;;;;5.86;64.22;100865.03;695365;28;1984;-90
2023/10/18 00:26:51;;;;;;;11.65;9.00;;;;;;;5.84;64.38;100858.88;690522;28;1099;-90
2023/10/18 00:27:13;;;;;;;11.00;9.07;;;;;;;5.86;64.27;100862.44;688044;28;1072;-90
2023/10/18 00:27:36;;;;;;;10.52;9.25;;;;;;;5.83;64.32;100859.72;693559;28;1746;-89
2023/10/18 00:27:58;;;;;;;10.70;9.30;;;;;;;5.83;64.44;100859.72;693403;28;1322;-89
2023/10/18 00:28:20;;;;;;;11.48;9.50;;;;;;;5.84;64.61;100858.88;693337;28;1469;-90
2023/10/18 00:28:40;;;;;;;10.95;9.30;;;;;;;5.84;65.03;100851.13;690795;28;1240;-90
2023/10/18 00:29:01;;;;;;;9.80;8.80;;;;;;;5.88;64.71;100860.78;696449;28;1160;-89
2023/10/18 00:29:22;;;;;;;9.30;8.40;;;;;;;5.88;64.64;100858.22;690726;28;1500;-90
2023/10/18 00:29:43;;;;;;;10.00;8.87;;;;;;;5.86;64.58;100849.47;696026;28;1267;-90
2023/10/18 00:30:07;;;;;;;11.18;9.55;;;;;;;5.86;64.59;100850.38;696278;28;1140;-90
2023/10/18 00:30:29;;;;;;;11.07;9.77;;;;;;;5.84;64.17;100845.94;687927;28;1262;-90
2023/10/18 00:30:52;;;;;;;10.13;9.13;;;;;;;5.90;64.65;100854.00;690445;28;1394;-89
2023/10/18 00:31:17;;;;;;;9.82;8.80;;;;;;;5.87;64.51;100853.84;693194;28;1204;-90
2023/10/18 00:31:38;;;;;;;9.80;8.55;;;;;;;5.85;64.38;100851.19;684599;28;1278;-90
2023/10/18 00:31:59;;;;;;;9.65;8.65;;;;;;;5.86;64.37;100849.47;693043;28;1161;-90
2023/10/18 00:32:21;;;;;;;10.00;8.63;;;;;;;5.86;64.77;100849.47;693327;28;1072;-90
2023/10/18 00:32:45;;;;;;;9.63;8.60;;;;;;;5.89;64.61;100855.69;698214;28;1168;-90
2023/10/18 00:33:06;;;;;;;10.55;8.88;;;;;;;5.86;64.71;100852.97;685217;28;1403;-90
2023/10/18 00:33:28;;;;;;;10.63;8.40;;;;;;;5.90;64.74;100856.59;690541;28;1237;-90
2023/10/18 00:33:49;;;;;;;10.65;8.18;;;;;;;5.86;64.49;100844.31;695969;28;1304;-90
2023/10/18 00:34:11;;;;;;;11.87;8.80;;;;;;;5.86;64.67;100849.47;693409;28;1298;-90
2023/10/18 00:34:32;;;;;;;11.18;9.30;;;;;;;5.88;64.44;100858.22;687771;28;1380;-89
2023/10/18 00:34:56;;;;;;;10.80;9.43;;;;;;;5.90;64.58;100851.41;697389;28;1208;-90
2023/10/18 00:35:20;;;;;;;10.35;9.25;;;;;;;5.93;64.33;100861.91;692388;28;1482;-90
2023/10/18 00:35:41;;;;;;;10.75;9.18;;;;;;;5.96;64.73;100869.81;691122;28;1333;-90
2023/10/18 00:36:03;;;;;;;10.98;9.05;;;;;;;5.91;64.72;100858.38;690683;28;1366;-90
2023/10/18 00:36:24;;;;;;;11.15;8.88;;;;;;;5.91;64.53;100863.56;690550;28;1433;-90
2023/10/18 00:36:46;;;;;;;10.35;8.98;;;;;;;5.87;64.19;100853.84;693416;28;1437;-90
2023/10/18 00:37:07;;;;;;;10.23;9.13;;;;;;;5.91;64.53;100857.47;696172;28;1282;-90
2023/10/18 00:37:30;;;;;;;10.45;9.40;;;;;;;5.90;64.59;100856.59;690675;28;1576;-90
2023/10/18 00:37:57;;;;;;;10.27;9.18;;;;;;;5.95;64.57;100865.47;690482;28;1366;-90
2023/10/18 00:38:18;;;;;;;9.40;8.40;;;;;;;5.93;64.51;100863.59;690481;28;1371;-90
2023/10/18 00:38:40;;;;;;;9.63;8.30;;;;;;;5.86;64.40;100854.66;685068;28;1222;-90
2023/10/18 00:39:14;;;;;;;9.43;8.43;;;;;;;5.93;64.48;100866.19;690229;28;1278;-90
2023/10/18 00:39:35;;;;;;;10.02;9.02;;;;;;;5.90;64.37;100856.59;690585;28;1362;-90
2023/10/18 00:39:56;;;;;;;10.40;9.33;;;;;;;5.97;64.48;100873.31;685207;28;1138;-90
2023/10/18 00:40:36;;;;;;;10.87;9.77;;;;;;;5.93;64.46;100872.28;687363;28;1093;-90
2023/10/18 00:40:57;;;;;;;10.45;9.40;;;;;;;5.96;64.40;100867.22;690243;28;1317;-90
2023/10/18 00:41:32;;;;;;;9.90;8.90;;;;;;;5.93;64.31;100872.28;687497;28;1073;-90
2023/10/18 00:42:23;;;;;;;10.32;9.30;;;;;;;5.88;64.21;100853.03;687610;28;1344;-90
2023/10/18 00:42:37;;;;;;;11.25;9.20;;;;;;;5.87;64.32;100861.63;684135;28;1424;-89
2023/10/18 00:43:22;;;;;;;10.30;8.40;;;;;;;5.92;64.43;100865.31;687881;28;1224;-90
2023/10/18 00:43:46;;;;;;;12.68;9.35;;;;;;;5.91;64.55;100863.56;690680;28;1300;-89
2023/10/18 00:44:09;;;;;;;13.10;9.60;;;;;;;5.86;64.46;100854.66;695642;28;1305;-90
2023/10/18 00:44:31;;;;;;;11.90;9.07;;;;;;;5.87;64.58;100851.25;695961;28;1295;-90
2023/10/18 00:44:55;;;;;;;11.48;8.98;;;;;;;5.87;64.22;100856.44;693290;28;1040;-90
2023/10/18 00:45:16;;;;;;;10.00;8.88;;;;;;;5.90;64.55;100864.38;698828;28;1268;-90
2023/10/18 00:45:43;;;;;;;11.60;9.35;;;;;;;5.88;64.68;100855.63;694047;28;1226;-89
2023/10/18 00:46:06;;;;;;;10.32;8.50;;;;;;;5.85;64.27;100856.38;693368;28;1386;-90
2023/10/18 00:46:28;;;;;;;10.45;8.60;;;;;;;5.85;64.21;100848.59;690082;28;1953;-90
2023/10/18 00:46:52;;;;;;;11.40;8.75;;;;;;;5.89;64.35;100854.78;695963;28;1180;-90
2023/10/18 00:47:13;;;;;;;11.85;9.50;;;;;;;5.85;64.42;100853.78;693370;28;1236;-90
2023/10/18 00:47:35;;;;;;;11.23;9.25;;;;;;;5.84;64.39;100856.28;693209;28;1371;-90
2023/10/18 00:47:57;;;;;;;11.05;9.20;;;;;;;5.81;64.38;100848.34;695558;28;1272;-90
2023/10/18 00:48:26;;;;;;;10.20;8.63;;;;;;;5.90;64.48;100859.19;687810;28;1498;-90
2023/10/18 00:48:47;;;;;;;10.15;8.85;;;;;;;5.81;64.06;100841.50;690389;28;1395;-90
2023/10/18 00:49:14;;;;;;;9.60;8.57;;;;;;;5.82;64.37;100847.56;693365;28;1104;-90
2023/10/18 00:49:35;;;;;;;9.68;8.70;;;;;;;5.84;64.23;100857.16;687622;28;1275;-90
2023/10/18 00:49:55;;;;;;;10.80;9.10;;;;;;;5.83;64.35;100849.34;689991;28;1331;-90
2023/10/18 00:50:18;;;;;;;11.05;9.10;;;;;;;5.81;64.40;100846.66;693046;28;1266;-90
2023/10/18 00:50:45;;;;;;;9.75;8.38;;;;;;;5.81;64.26;100836.31;690315;28;1140;-90
2023/10/18 00:51:09;;;;;;;10.00;8.70;;;;;;;5.83;64.66;100846.75;690640;28;1304;-90
2023/10/18 00:51:30;;;;;;;10.15;8.88;;;;;;;5.80;64.33;100839.72;692964;28;1388;-89
2023/10/18 00:51:51;;;;;;;12.88;9.48;;;;;;;5.78;64.41;100835.28;690508;28;1251;-90
2023/10/18 00:52:15;;;;;;;12.80;9.38;;;;;;;5.80;64.28;100836.22;690410;28;1208;-90
2023/10/18 00:52:36;;;;;;;12.60;9.13;;;;;;;5.81;64.69;100843.19;690092;28;1367;-90
2023/10/18 00:52:56;;;;;;;10.55;8.80;;;;;;;5.75;64.64;100831.72;696152;28;1081;-90
2023/10/18 00:53:22;;;;;;;11.50;8.20;;;;;;;5.79;64.58;100837.03;693026;28;1182;-90
2023/10/18 00:53:47;;;;;;;10.25;8.00;;;;;;;5.80;64.74;100838.81;695827;28;1431;-90
2023/10/18 00:54:11;;;;;;;9.45;8.02;;;;;;;5.79;64.33;100837.03;693200;28;1352;-90
2023/10/18 00:54:32;;;;;;;10.43;7.93;;;;;;;5.78;64.74;100830.09;693348;28;1208;-90
2023/10/18 00:54:53;;;;;;;9.25;7.80;;;;;;;5.77;64.40;100828.31;687812;28;917;-90
2023/10/18 00:55:14;;;;;;;9.35;8.32;;;;;;;5.76;64.37;100837.78;687757;28;1360;-90
2023/10/18 00:55:36;;;;;;;9.60;8.60;;;;;;;5.75;64.72;100826.53;687826;28;1110;-90
2023/10/18 00:56:04;;;;;;;11.32;9.20;;;;;;;5.81;64.63;100840.59;690700;28;1291;-90
2023/10/18 00:56:26;;;;;;;11.55;8.70;;;;;;;5.74;64.52;100819.59;692931;28;1280;-90
2023/10/18 00:56:47;;;;;;;12.18;9.05;;;;;;;5.67;64.48;100817.53;687690;28;1419;-90
2023/10/18 00:57:08;;;;;;;11.02;8.88;;;;;;;5.75;64.31;100831.72;692829;28;1297;-90
2023/10/18 00:57:34;;;;;;;11.50;9.20;;;;;;;5.74;64.63;100822.19;693386;28;1226;-90
2023/10/18 00:57:57;;;;;;;11.45;9.32;;;;;;;5.80;64.51;100831.03;690668;28;1271;-90
2023/10/18 00:58:19;;;;;;;11.48;9.27;;;;;;;5.73;64.68;100825.59;690345;28;1199;-90
2023/10/18 00:58:40;;;;;;;11.70;9.40;;;;;;;5.80;64.68;100838.81;690341;28;1290;-90
2023/10/18 01:01:01;;;;;;;10.10;8.50;;;;;;;5.77;64.75;100830.91;696829;28;1075;-90
2023/10/18 01:01:28;;;;;;;10.35;9.25;;;;;;;5.73;64.60;100822.09;690639;28;1401;-89
2023/10/18 01:01:59;;;;;;;11.18;9.50;;;;;;;5.73;64.73;100823.00;695705;28;1334;-90
2023/10/18 01:02:27;;;;;;;11.38;9.18;;;;;;;5.75;64.45;100826.53;695954;28;1311;-89
2023/10/18 01:02:50;;;;;;;11.80;9.40;;;;;;;5.73;64.88;100828.19;690375;28;953;-89
2023/10/18 01:03:18;;;;;;;10.55;9.20;;;;;;;5.71;64.78;100819.44;693281;28;1203;-89
2023/10/18 01:03:42;;;;;;;10.65;9.40;;;;;;;5.75;64.90;100821.38;690529;28;1078;-89
2023/10/18 01:04:05;;;;;;;11.00;9.75;;;;;;;5.73;64.71;100816.94;688127;28;1053;-90
2023/10/18 01:04:31;;;;;;;12.15;9.38;;;;;;;5.76;64.80;100822.25;692342;28;1225;-90
2023/10/18 01:04:52;;;;;;;12.02;8.93;;;;;;;5.74;64.94;100818.69;692967;28;1467;-90
2023/10/18 01:05:15;;;;;;;11.07;9.23;;;;;;;5.78;64.57;100824.91;695481;28;1371;-90
2023/10/18 01:05:36;;;;;;;12.65;9.50;;;;;;;5.75;64.72;100821.38;695935;28;1193;-90
2023/10/18 01:06:03;;;;;;;15.45;10.13;;;;;;;5.75;64.52;100816.19;690621;28;1269;-90
2023/10/18 01:06:26;;;;;;;15.23;10.35;;;;;;;5.76;64.52;100817.06;690139;28;1910;-90
2023/10/18 01:06:50;;;;;;;16.80;10.40;;;;;;;5.72;64.96;100808.25;692684;28;1269;-90
2023/10/18 01:07:13;;;;;;;12.63;9.75;;;;;;;5.74;64.49;100822.19;682677;28;1321;-90
2023/10/18 01:07:35;;;;;;;12.93;9.95;;;;;;;5.77;64.55;100818.84;687802;28;1052;-90
2023/10/18 01:07:58;;;;;;;12.23;10.00;;;;;;;5.81;64.72;100832.81;690733;28;1256;-90
2023/10/18 01:08:23;;;;;;;11.93;9.90;;;;;;;5.75;64.53;100808.41;687649;28;1346;-90
2023/10/18 01:08:47;;;;;;;11.77;9.60;;;;;;;5.81;64.66;100825.94;690492;28;1268;-90
2023/10/18 01:09:15;;;;;;;11.85;9.57;;;;;;;5.75;64.67;100815.28;693421;28;1090;-90
2023/10/18 01:09:35;;;;;;;11.93;9.55;;;;;;;5.73;64.64;100811.75;687734;28;1306;-90
2023/10/18 01:09:56;;;;;;;11.30;9.15;;;;;;;5.77;64.84;100812.78;690745;28;1209;-90
2023/10/18 01:10:19;;;;;;;10.97;9.10;;;;;;;5.80;64.92;100812.91;693424;28;1215;-90
2023/10/18 01:10:42;;;;;;;10.43;9.10;;;;;;;5.80;65.04;100812.91;682533;28;1329;-90
2023/10/18 01:11:08;;;;;;;10.23;9.05;;;;;;;5.79;64.78;100813.72;690664;28;1188;-90
2023/10/18 01:11:28;;;;;;;10.38;9.38;;;;;;;5.83;64.84;100815.69;687858;28;1378;-90
2023/10/18 01:11:51;;;;;;;12.23;9.23;;;;;;;5.83;65.02;100816.53;692997;28;1230;-90
2023/10/18 01:12:14;;;;;;;13.65;8.88;;;;;;;5.87;65.21;100820.16;698711;28;1374;-90
2023/10/18 01:12:37;;;;;;;11.07;8.73;;;;;;;5.85;64.44;100814.94;693170;28;1264;-90
2023/10/18 01:12:58;;;;;;;11.07;8.98;;;;;;;5.84;64.90;100812.28;693348;28;1216;-90
2023/10/18 01:13:20;;;;;;;11.85;9.75;;;;;;;5.88;64.05;100819.34;693173;28;1314;-90
2023/10/18 01:13:47;;;;;;;12.55;9.48;;;;;;;5.88;64.67;100822.84;695821;28;1246;-90
2023/10/18 01:14:08;;;;;;;11.85;9.43;;;;;;;5.87;64.34;100815.00;692837;28;1258;-90
2023/10/18 01:14:33;;;;;;;11.55;9.38;;;;;;;5.86;64.44;100813.22;690569;28;976;-90
2023/10/18 01:14:53;;;;;;;10.70;9.00;;;;;;;5.85;64.60;100816.63;695214;28;1231;-90
2023/10/18 01:15:19;;;;;;;10.38;8.82;;;;;;;5.84;64.43;100813.13;690554;28;1087;-90
2023/10/18 01:15:43;;;;;;;9.93;8.80;;;;;;;5.85;64.57;100816.63;691750;28;1008;-90
2023/10/18 01:16:38;;;;;;;10.95;9.27;;;;;;;5.77;64.77;100802.41;690594;28;1521;-90
2023/10/18 01:16:56;;;;;;;11.57;8.80;;;;;;;5.82;64.37;100819.09;684470;28;1583;-90
2023/10/18 01:17:19;;;;;;;9.90;8.90;;;;;;;5.78;64.68;100804.19;690328;28;1202;-90
2023/10/18 01:17:43;;;;;;;10.70;9.45;;;;;;;5.80;64.39;100806.06;693194;28;1410;-90
2023/10/18 01:18:05;;;;;;;10.88;9.50;;;;;;;5.79;64.48;100803.38;693356;28;1267;-90
2023/10/18 01:18:25;;;;;;;9.95;8.95;;;;;;;5.83;64.43;100813.94;693218;28;1156;-90
2023/10/18 01:18:47;;;;;;;11.20;9.10;;;;;;;5.84;64.43;100814.84;689758;28;1256;-90
2023/10/18 01:19:14;;;;;;;12.05;9.63;;;;;;;5.85;64.57;100819.22;685188;28;1794;-90
2023/10/18 01:19:44;;;;;;;12.88;10.40;;;;;;;5.78;64.40;100804.19;690485;28;1376;-89
2023/10/18 01:20:13;;;;;;;11.85;10.15;;;;;;;5.83;64.45;100815.69;688005;28;1371;-90
2023/10/18 01:20:38;;;;;;;11.32;9.48;;;;;;;5.79;64.38;100808.56;685696;28;1278;-90
2023/10/18 01:21:13;;;;;;;11.63;9.35;;;;;;;5.81;64.29;100812.09;687933;28;1296;-89
2023/10/18 01:21:34;;;;;;;12.00;9.23;;;;;;;5.80;64.68;100806.06;693179;28;1343;-90
2023/10/18 01:21:55;;;;;;;12.88;8.93;;;;;;;5.75;64.44;100805.84;690517;28;1252;-90
2023/10/18 01:22:17;;;;;;;16.83;9.80;;;;;;;5.76;64.08;100804.13;693012;28;1278;-90
2023/10/18 01:22:38;;;;;;;16.40;9.80;;;;;;;5.74;64.58;100804.06;695784;28;1243;-91
2023/10/18 01:22:58;;;;;;;16.42;10.32;;;;;;;5.77;64.49;100808.47;690786;28;1267;-90
2023/10/18 01:23:19;;;;;;;13.57;9.85;;;;;;;5.75;64.31;100800.66;695407;28;1342;-90
2023/10/18 01:23:42;;;;;;;10.80;9.70;;;;;;;5.76;64.28;100801.53;695974;28;1054;-89
2023/10/18 01:24:13;;;;;;;10.50;9.40;;;;;;;5.74;64.18;100804.06;693144;28;1674;-90
2023/10/18 01:24:38;;;;;;;10.65;9.18;;;;;;;5.76;64.55;100809.28;693221;28;1389;-90
2023/10/18 01:24:59;;;;;;;10.30;9.20;;;;;;;5.74;64.57;100797.97;687925;28;1408;-90
2023/10/18 01:25:20;;;;;;;10.15;9.10;;;;;;;5.78;64.80;100806.78;690599;28;1356;-90
2023/10/18 01:25:41;;;;;;;11.27;8.87;;;;;;;5.72;64.49;100805.66;687567;28;1191;-90
2023/10/18 01:26:03;;;;;;;12.50;9.02;;;;;;;5.73;64.53;100796.22;687914;28;1285;-90
2023/10/18 01:26:28;;;;;;;15.27;9.93;;;;;;;5.79;64.61;100805.97;689907;28;1919;-90
2023/10/18 01:26:49;;;;;;;13.38;10.25;;;;;;;5.81;64.55;100809.50;692662;28;1322;-90
2023/10/18 01:27:12;;;;;;;10.98;9.70;;;;;;;5.78;64.46;100806.78;693291;28;1306;-90
2023/10/18 01:27:34;;;;;;;11.80;10.00;;;;;;;5.83;64.66;100805.31;693253;28;1201;-90
2023/10/18 01:27:56;;;;;;;11.63;9.90;;;;;;;5.77;64.91;100798.13;685408;28;764;-90
2023/10/18 01:28:17;;;;;;;11.23;9.90;;;;;;;5.81;64.49;100804.31;689999;28;1414;-90
2023/10/18 01:28:37;;;;;;;12.93;9.47;;;;;;;5.75;64.46;100794.56;690537;28;1137;-90
2023/10/18 01:29:03;;;;;;;14.50;9.48;;;;;;;5.79;64.29;100795.59;690316;28;984;-90
2023/10/18 01:29:24;;;;;;;16.55;10.60;;;;;;;5.73;64.49;100791.94;687940;28;1102;-90
2023/10/18 01:29:44;;;;;;;12.27;10.75;;;;;;;5.83;64.65;100818.25;697887;28;1199;-90
2023/10/18 01:30:06;;;;;;;12.13;10.50;;;;;;;5.78;64.57;100796.44;693497;28;1218;-90
2023/10/18 01:30:29;;;;;;;10.70;9.60;;;;;;;5.75;64.51;100792.88;687811;28;1295;-90
2023/10/18 01:30:50;;;;;;;10.65;9.55;;;;;;;5.85;64.61;100812.34;690431;28;1391;-90
2023/10/18 01:31:12;;;;;;;10.82;9.50;;;;;;;5.82;64.61;100806.13;693022;28;1174;-90
2023/10/18 01:31:33;;;;;;;12.45;9.70;;;;;;;5.80;64.31;100797.38;693279;28;1255;-88
2023/10/18 01:31:55;;;;;;;13.75;10.13;;;;;;;5.80;64.53;100802.56;687837;28;1258;-90
2023/10/18 01:32:18;;;;;;;12.93;9.55;;;;;;;5.77;64.37;100792.06;692658;28;1270;-90
2023/10/18 01:32:39;;;;;;;11.15;9.55;;;;;;;5.78;64.25;100788.66;695902;28;1269;-90
2023/10/18 01:33:10;;;;;;;10.50;9.40;;;;;;;5.71;64.30;100788.34;690628;28;1345;-90
2023/10/18 01:33:43;;;;;;;10.13;9.07;;;;;;;5.77;64.36;100795.53;695856;28;1301;-90
2023/10/18 01:34:04;;;;;;;11.10;9.35;;;;;;;5.75;64.32;100790.28;690541;28;1197;-90
2023/10/18 01:34:28;;;;;;;12.45;9.70;;;;;;;5.73;64.48;100785.84;693132;28;1348;-90
2023/10/18 01:34:48;;;;;;;12.48;9.50;;;;;;;5.70;64.63;100780.53;693109;28;1429;-90
2023/10/18 01:35:11;;;;;;;12.55;9.38;;;;;;;5.74;64.46;100792.81;701716;28;1096;-90
2023/10/18 01:35:32;;;;;;;12.52;9.50;;;;;;;5.71;64.49;100785.75;695979;28;1250;-90
2023/10/18 01:35:53;;;;;;;11.60;9.40;;;;;;;5.69;64.37;100784.81;701523;28;979;-91
2023/10/18 01:36:17;;;;;;;10.13;9.00;;;;;;;5.70;64.50;100780.53;687608;28;1193;-90
2023/10/18 01:36:41;;;;;;;9.85;8.85;;;;;;;5.74;64.67;100791.09;692616;28;1225;-90
2023/10/18 01:37:02;;;;;;;10.55;9.45;;;;;;;5.74;64.63;100791.09;690615;28;1370;-90
2023/10/18 01:37:24;;;;;;;11.02;9.45;;;;;;;5.75;64.59;100792.88;689879;28;1291;-90
2023/10/18 01:37:46;;;;;;;13.88;10.05;;;;;;;5.73;64.29;100786.75;696067;28;1209;-90
2023/10/18 01:38:13;;;;;;;14.30;10.02;;;;;;;5.72;64.43;100789.25;693824;28;1311;-90
2023/10/18 01:38:34;;;;;;;13.45;10.10;;;;;;;5.71;64.38;100785.75;691007;28;1252;-90
2023/10/18 01:38:56;;;;;;;12.52;9.90;;;;;;;5.73;64.38;100789.34;696527;28;1333;-91
2023/10/18 01:39:20;;;;;;;13.85;10.10;;;;;;;5.70;64.87;100784.00;690902;28;1310;-90
2023/10/18 01:39:41;;;;;;;18.38;9.85;;;;;;;5.74;64.39;100793.69;696464;28;1359;-90
2023/10/18 01:40:21;;;;;;;18.20;9.60;;;;;;;5.73;64.78;100791.03;691180;28;1267;-90
2023/10/18 01:40:55;;;;;;;10.77;9.68;;;;;;;5.73;64.30;100788.44;693626;28;1128;-90
2023/10/18 01:41:25;;;;;;;11.07;9.57;;;;;;;5.77;64.83;100792.06;692662;28;1368;-90
2023/10/18 01:41:50;;;;;;;11.52;9.68;;;;;;;5.79;64.72;100799.09;695695;28;1396;-90
2023/10/18 01:42:13;;;;;;;11.35;9.63;;;;;;;5.73;64.61;100786.75;696556;28;1035;-90
2023/10/18 01:42:37;;;;;;;11.77;9.55;;;;;;;5.74;64.49;100777.25;696492;28;1355;-90
2023/10/18 01:43:00;;;;;;;11.73;9.60;;;;;;;5.78;64.67;100789.56;699541;28;1465;-90
2023/10/18 01:43:22;;;;;;;13.00;10.05;;;;;;;5.78;64.85;100792.16;693698;28;1383;-90
2023/10/18 01:43:47;;;;;;;17.05;10.27;;;;;;;5.79;64.79;100791.31;696380;28;1465;-90
2023/10/18 01:44:10;;;;;;;17.38;10.50;;;;;;;5.78;64.61;100783.47;698178;28;1288;-90
2023/10/18 01:44:31;;;;;;;17.35;10.50;;;;;;;5.80;64.65;100787.03;690572;28;1277;-90
2023/10/18 01:44:52;;;;;;;12.85;10.73;;;;;;;5.74;64.39;100783.34;690943;28;1374;-90
2023/10/18 01:45:21;;;;;;;14.98;10.27;;;;;;;5.79;64.68;100787.84;693242;28;1429;-90
2023/10/18 01:45:42;;;;;;;13.02;9.30;;;;;;;5.77;64.66;100784.28;696017;28;1235;-90
2023/10/18 01:46:08;;;;;;;12.48;9.25;;;;;;;5.71;64.61;100774.53;691210;28;1280;-91
2023/10/18 01:46:29;;;;;;;12.40;10.05;;;;;;;5.77;64.61;100782.56;693583;28;2266;-90
2023/10/18 01:46:52;;;;;;;13.55;10.68;;;;;;;5.77;64.64;100786.88;693640;28;1339;-90
2023/10/18 01:49:26;;;;;;;13.50;10.68;;;;;;;5.82;64.66;100790.59;700033;28;709;-90
2023/10/18 01:50:08;;;;;;;13.75;11.02;;;;;;;5.78;64.51;100780.88;696753;28;712;-90
2023/10/18 01:50:50;;;;;;;11.70;10.55;;;;;;;5.82;64.67;100780.22;690771;28;1024;-90
2023/10/18 01:51:12;;;;;;;12.38;10.10;;;;;;;5.82;64.71;100783.69;688172;28;1372;-90
2023/10/18 01:51:33;;;;;;;13.80;10.60;;;;;;;5.85;64.53;100790.72;688160;28;1238;-90
2023/10/18 01:51:57;;;;;;;14.25;10.23;;;;;;;5.81;64.40;100783.63;693405;28;1358;-89
2023/10/18 01:52:19;;;;;;;13.23;10.63;;;;;;;5.73;64.52;100771.22;693579;28;1114;-90
2023/10/18 01:52:41;;;;;;;13.77;10.57;;;;;;;5.79;64.40;100780.06;688219;28;1361;-90
2023/10/18 01:53:03;;;;;;;11.80;10.13;;;;;;;5.80;64.75;100776.66;688057;28;1325;-90
2023/10/18 01:53:24;;;;;;;11.90;10.35;;;;;;;5.75;64.50;100787.69;685516;28;1179;-90
2023/10/18 01:53:50;;;;;;;11.93;10.32;;;;;;;5.73;64.37;100773.81;690940;28;1205;-90
2023/10/18 01:54:15;;;;;;;11.32;9.90;;;;;;;5.77;64.58;100779.97;693674;28;1247;-90
2023/10/18 01:54:36;;;;;;;10.50;9.30;;;;;;;5.74;64.32;100777.25;693240;28;1401;-90
2023/10/18 01:54:57;;;;;;;10.70;9.60;;;;;;;5.71;64.39;100778.00;691234;28;1165;-90
2023/10/18 01:55:17;;;;;;;11.18;10.00;;;;;;;5.68;64.40;100772.69;693723;28;1245;-90
2023/10/18 01:55:42;;;;;;;11.13;10.00;;;;;;;5.73;64.72;100780.66;693730;28;1280;-90
2023/10/18 01:56:03;;;;;;;11.15;10.05;;;;;;;5.69;64.38;100777.03;690336;28;1270;-90
2023/10/18 01:56:25;;;;;;;10.48;9.38;;;;;;;5.73;64.54;100786.75;690927;28;1258;-90
2023/10/18 01:56:46;;;;;;;10.80;9.52;;;;;;;5.71;64.67;100778.00;695458;28;1378;-90